Latest Weather Observations for Nullarbor

IDS60801

Issued at 9:51 pm CST Thursday 24 September 2020 (issued every 10 minutes, with the page automatically refreshed every 10 minutes)

About weather observations | Map of weather stations | Latest weather observations for SA | Other Formats
Station Details ID: 018106 Name: NULLARBOR Lat: -31.45 Lon: 130.90 Height: 64.0 m
Data from the previous 72 hours. | See also: Recent months at Nullarbor
Date/Time
CST
Temp
°C
App
Temp
°C
Dew
Point
°C
Rel
Hum
%
Delta-T
°C
Wind Press
QNH
hPa
Press
MSL
hPa
Rain since
9am
mm
Dir  Spd
km/h
Gust
km/h
Spd
kts
Gust
kts
24/09:43pm 11.8 7.8 11.8 100 0.0 SW 24 32 13 17 1020.1 1020.1 1.4
24/09:32pm 11.9 7.1 11.7 99 0.1 WSW 28 39 15 21 1020.1 1020.1 0.4
24/09:30pm 12.0 7.2 11.8 99 0.1 WSW 28 39 15 21 1020.0 1020.0 0.0
24/09:27pm 12.1 7.8 11.9 99 0.1 WSW 26 33 14 18 1020.0 1020.0 0.0
24/09:10pm 12.2 6.8 10.8 91 0.7 SW 30 44 16 24 1019.9 1019.9 0.0
24/09:09pm 12.3 7.2 10.5 89 0.9 WSW 28 44 15 24 1019.9 1019.9 0.0
24/09:00pm 12.7 8.9 9.0 78 1.9 WSW 19 26 10 14 1019.7 1019.7 0.0
24/08:30pm 12.3 9.0 9.7 84 1.3 W 17 22 9 12 1019.7 1019.7 0.0
24/08:00pm 12.5 9.1 9.3 81 1.6 WSW 17 24 9 13 1019.8 1019.8 0.0
24/07:30pm 12.9 9.2 9.4 79 1.8 WSW 19 24 10 13 1019.4 1019.4 0.0
24/07:00pm 13.3 9.0 9.5 78 1.9 WSW 22 32 12 17 1019.3 1019.3 0.0
24/06:30pm 14.0 7.8 9.4 74 2.4 WSW 32 43 17 23 1019.3 1019.3 0.0
24/06:00pm 14.2 7.9 9.8 75 2.3 SW 33 46 18 25 1019.2 1019.2 0.0
24/05:30pm 15.3 9.2 10.5 73 2.5 WSW 33 46 18 25 1019.0 1019.0 0.0
24/05:00pm 15.7 8.9 9.4 66 3.3 WSW 35 46 19 25 1018.9 1018.9 0.0
24/04:30pm 15.9 9.6 8.9 63 3.6 WSW 32 46 17 25 1018.9 1018.9 0.0
24/04:00pm 16.2 9.2 8.4 60 4.0 WSW 35 50 19 27 1019.0 1019.0 0.0
24/03:30pm 17.1 10.0 8.0 55 4.6 SW 35 46 19 25 1019.2 1019.2 0.0
24/03:22pm 17.6 11.1 8.2 54 4.8 WSW 32 50 17 27 1019.3 1019.3 0.0
24/03:00pm 17.0 10.1 7.4 53 4.8 SW 33 46 18 25 1019.5 1019.5 0.0
24/02:30pm 17.7 10.3 6.6 48 5.5 SW 35 50 19 27 1019.9 1019.9 0.0
24/02:13pm 17.7 11.0 7.4 51 5.2 SW 32 46 17 25 1020.1 1020.1 0.0
24/02:00pm 17.3 10.5 7.9 54 4.8 SW 33 46 18 25 1020.3 1020.3 0.0
24/01:52pm 17.4 10.6 7.5 52 5.0 SW 33 52 18 28 1020.5 1020.5 0.0
24/01:30pm 17.1 10.4 8.0 55 4.6 WSW 33 48 18 26 1020.6 1020.6 0.0
24/01:03pm 17.5 11.0 8.1 54 4.8 SW 32 46 17 25 1020.8 1020.8 0.0
24/01:00pm 17.6 11.9 8.2 54 4.8 WSW 28 46 15 25 1020.8 1020.8 0.0
24/12:30pm 17.2 10.3 6.4 49 5.3 WSW 32 43 17 23 1021.3 1021.3 0.0
24/12:00pm 16.4 10.7 6.8 53 4.7 WSW 26 37 14 20 1021.8 1021.8 0.0
24/11:30am 16.6 11.0 7.0 53 4.8 W 26 39 14 21 1022.5 1022.5 0.0
24/11:00am 16.0 11.0 8.0 59 4.0 WSW 24 33 13 18 1023.1 1023.0 0.0
24/10:30am 15.6 11.0 8.1 61 3.8 W 22 32 12 17 1023.5 1023.4 0.0
24/10:00am 14.8 10.1 7.8 63 3.5 WSW 22 33 12 18 1023.9 1023.8 0.0
24/09:30am 14.8 10.2 8.1 64 3.3 W 22 30 12 16 1023.8 1023.7 0.0
24/09:00am 13.7 10.1 8.3 70 2.7 WNW 17 22 9 12 1023.8 1023.7 0.0
24/08:30am 13.1 9.1 8.4 73 2.3 WNW 19 22 10 12 1023.7 1023.6 0.0
24/08:00am 11.6 8.4 8.6 82 1.5 WNW 15 17 8 9 1023.6 1023.5 0.0
24/07:30am 10.3 7.5 8.7 90 0.8 NW 13 17 7 9 1023.3 1023.2 0.0
24/07:00am 9.2 7.2 8.6 96 0.3 NW 9 13 5 7 1023.2 1023.1 0.0
24/06:30am 8.8 6.8 8.5 98 0.1 NW 9 11 5 6 1023.4 1023.3 0.0
24/06:00am 8.5 6.4 8.4 99 0.0 NW 9 11 5 6 1023.8 1023.7 0.0
24/05:30am 8.0 5.4 7.9 99 0.0 WNW 11 13 6 7 1023.9 1023.8 0.0
24/05:00am 7.2 4.4 7.1 99 0.0 WNW 11 13 6 7 1023.8 1023.7 0.0
24/04:30am 5.0 1.4 4.9 99 0.0 WNW 13 13 7 7 1023.8 1023.7 0.0
24/04:00am 5.4 1.8 5.1 98 0.1 WNW 13 15 7 8 1023.6 1023.5 0.0
24/03:30am 5.5 2.6 4.8 95 0.3 W 9 15 5 8 1023.7 1023.6 0.0
24/03:00am 6.0 3.1 4.6 91 0.6 W 9 11 5 6 1024.1 1024.0 0.0
24/02:30am 6.8 3.9 4.8 87 0.9 WSW 9 13 5 7 1024.1 1024.0 0.0
24/02:00am 9.3 5.9 6.0 80 1.5 SW 13 15 7 8 1024.2 1024.1 0.0
24/01:30am 9.0 5.6 5.9 81 1.4 SSW 13 15 7 8 1024.5 1024.4 0.0
24/01:00am 9.9 6.7 6.8 81 1.5 SSW 13 15 7 8 1024.8 1024.7 0.0
24/12:30am 9.1 6.2 6.4 83 1.2 SSW 11 13 6 7 1025.0 1024.9 0.0
24/12:00am 9.4 6.6 6.8 84 1.2 SSW 11 13 6 7 1025.3 1025.2 0.0
 
Date/Time
CST
Temp
°C
App
Temp
°C
Dew
Point
°C
Rel
Hum
%
Delta-T
°C
Wind Press
QNH
hPa
Press
MSL
hPa
Rain since
9am
mm
Dir  Spd
km/h
Gust
km/h
Spd
kts
Gust
kts
23/11:30pm 10.5 7.8 7.4 81 1.5 SSW 11 13 6 7 1025.6 1025.5 0.0
23/11:00pm 10.0 6.8 6.7 80 1.6 SSW 13 19 7 10 1025.8 1025.7 0.0
23/10:30pm 9.9 6.3 6.8 81 1.5 SSW 15 17 8 9 1026.0 1025.9 0.0
23/10:00pm 10.6 7.8 6.9 78 1.8 SSW 11 13 6 7 1026.3 1026.2 0.0
23/09:30pm 10.5 7.2 6.6 77 1.8 SSW 13 15 7 8 1026.4 1026.3 0.0
23/09:00pm 11.1 7.9 6.8 75 2.0 SSW 13 17 7 9 1026.2 1026.1 0.0
23/08:30pm 12.1 8.2 7.2 72 2.4 SSW 17 22 9 12 1026.1 1026.0 0.0
23/08:00pm 10.2 7.3 6.7 79 1.6 SSW 11 15 6 8 1026.0 1025.9 0.0
23/07:30pm 11.4 8.7 7.5 77 1.9 SSW 11 13 6 7 1025.9 1025.8 0.0
23/07:00pm 12.6 9.6 7.9 73 2.3 S 13 19 7 10 1025.9 1025.8 0.0
23/06:30pm 13.7 9.6 8.7 72 2.5 S 20 28 11 15 1025.7 1025.6 0.0
23/06:00pm 14.2 9.7 8.4 68 2.9 S 22 28 12 15 1025.6 1025.5 0.0
23/05:30pm 15.4 10.4 8.2 62 3.6 S 24 33 13 18 1025.3 1025.2 0.0
23/05:00pm 15.9 10.9 8.2 60 3.9 S 24 33 13 18 1025.2 1025.1 0.0
23/04:30pm 16.0 11.1 8.5 61 3.8 S 24 33 13 18 1025.2 1025.1 0.0
23/04:00pm 15.8 10.5 8.5 62 3.7 S 26 32 14 17 1025.2 1025.1 0.0
23/03:30pm 16.4 11.7 9.3 63 3.7 S 24 33 13 18 1025.2 1025.1 0.0
23/03:00pm 16.3 11.5 8.8 61 3.8 S 24 35 13 19 1025.4 1025.3 0.0
23/02:30pm 16.7 10.9 8.1 57 4.3 SSW 28 35 15 19 1025.5 1025.4 0.0
23/02:00pm 16.7 11.1 8.9 60 4.0 SSW 28 39 15 21 1025.7 1025.6 0.0
23/01:30pm 17.8 12.9 9.9 60 4.2 SSW 26 35 14 19 1025.8 1025.7 0.0
23/01:00pm 16.5 12.2 9.4 63 3.7 S 22 37 12 20 1026.0 1025.9 0.0
23/12:30pm 16.7 12.8 9.6 63 3.7 SSW 20 28 11 15 1026.3 1026.2 0.0
23/12:00pm 16.8 12.8 9.2 61 3.9 S 20 30 11 16 1026.4 1026.3 0.0
23/11:30am 16.5 12.0 10.1 66 3.4 SSW 24 35 13 19 1026.4 1026.3 0.0
23/11:00am 15.9 12.5 11.3 74 2.5 SSW 20 32 11 17 1026.7 1026.6 0.0
23/10:30am 16.1 13.1 10.8 71 2.8 SSW 17 26 9 14 1026.9 1026.8 0.0
23/10:00am 14.4 11.8 11.9 85 1.4 WSW 17 20 9 11 1027.0 1026.9 0.0
23/09:30am 14.1 12.5 13.8 98 0.2 SSW 15 22 8 12 1026.9 1026.8 0.0
23/09:00am 14.0 13.5 13.8 99 0.1 W 9 13 5 7 1026.7 1026.6 0.0
23/08:30am 12.5 11.6 12.5 100 0.0 WNW 9 13 5 7 1026.4 1026.3 0.0
23/08:00am 10.8 - - - - WNW 11 15 6 8 1025.9 1025.8 0.0
23/07:30am 9.0 - - - - WNW 11 13 6 7 1025.7 1025.6 0.0
23/07:00am 7.1 4.0 7.1 100 0.0 WNW 13 13 7 7 1025.3 1025.2 0.0
23/06:30am 6.6 3.3 6.6 100 0.0 WNW 13 15 7 8 1025.1 1025.0 0.0
23/06:00am 6.7 3.8 6.7 100 0.0 WNW 11 13 6 7 1024.7 1024.6 0.0
23/05:30am 6.4 3.5 6.4 100 0.0 NW 11 13 6 7 1024.1 1024.0 0.0
23/05:00am 6.7 3.8 6.7 100 0.0 WNW 11 13 6 7 1023.8 1023.7 0.0
23/04:30am 7.1 4.3 7.1 100 0.0 WNW 11 13 6 7 1023.6 1023.5 0.0
23/04:00am 6.8 3.6 6.8 100 0.0 WNW 13 13 7 7 1023.7 1023.6 0.0
23/03:30am 6.6 3.7 6.6 100 0.0 WNW 11 13 6 7 1023.6 1023.5 0.0
23/03:00am 6.8 4.0 6.8 100 0.0 WNW 11 13 6 7 1023.7 1023.6 0.0
23/02:30am 6.9 4.5 6.9 100 0.0 NW 9 11 5 6 1023.7 1023.6 0.0
23/02:00am 7.1 4.3 7.1 100 0.0 NW 11 13 6 7 1023.6 1023.5 0.0
23/01:30am 7.4 4.7 7.4 100 0.0 NW 11 13 6 7 1023.7 1023.6 0.0
23/01:00am 8.0 5.8 8.0 100 0.0 WNW 9 11 5 6 1023.8 1023.7 0.0
23/12:30am 8.1 5.6 8.0 99 0.0 WNW 11 13 6 7 1023.6 1023.5 0.0
23/12:00am 8.5 6.4 8.4 99 0.0 WNW 9 11 5 6 1023.6 1023.5 0.0
 
Date/Time
CST
Temp
°C
App
Temp
°C
Dew
Point
°C
Rel
Hum
%
Delta-T
°C
Wind Press
QNH
hPa
Press
MSL
hPa
Rain since
9am
mm
Dir  Spd
km/h
Gust
km/h
Spd
kts
Gust
kts
22/11:30pm 8.5 6.0 8.4 99 0.0 WNW 11 13 6 7 1023.7 1023.6 0.0
22/11:00pm 9.5 7.3 9.4 99 0.0 W 11 13 6 7 1023.8 1023.7 0.0
22/10:30pm 9.3 7.2 8.1 92 0.6 W 9 11 5 6 1023.7 1023.6 0.0
22/10:00pm 11.4 9.4 10.1 92 0.7 SW 11 13 6 7 1023.5 1023.4 0.0
22/09:30pm 10.9 9.1 9.3 90 0.8 W 9 9 5 5 1023.5 1023.4 0.0
22/09:00pm 11.9 10.5 9.5 85 1.2 SW 7 7 4 4 1023.3 1023.2 0.0
22/08:30pm 12.2 10.8 9.6 84 1.3 SSW 7 11 4 6 1023.1 1023.0 0.0
22/08:00pm 12.1 10.2 9.1 82 1.5 SSW 9 11 5 6 1022.7 1022.7 0.0
22/07:30pm 12.6 10.2 8.7 77 1.9 SSW 11 15 6 8 1022.3 1022.3 0.0
22/07:00pm 13.6 10.5 8.7 72 2.5 SSW 15 17 8 9 1022.0 1022.0 0.0
22/06:30pm 14.7 10.5 8.2 65 3.3 SSW 20 28 11 15 1021.6 1021.6 0.0
22/06:00pm 15.8 10.2 7.3 57 4.2 SSW 26 33 14 18 1021.2 1021.2 0.0
22/05:30pm 16.5 10.1 6.9 53 4.7 SW 30 37 16 20 1021.0 1021.0 0.0
22/05:00pm 16.7 10.1 6.2 50 5.1 SW 30 39 16 21 1020.7 1020.7 0.0
22/04:30pm 17.3 11.0 7.6 53 4.9 SW 30 39 16 21 1020.2 1020.2 0.0
22/04:00pm 17.6 10.6 6.2 47 5.6 SW 32 44 17 24 1020.1 1020.1 0.0
22/03:30pm 18.0 11.4 5.9 45 5.9 SW 30 43 16 23 1020.0 1020.0 0.0
22/03:18pm 17.9 10.8 5.5 44 6.0 SW 32 50 17 27 1019.9 1019.9 0.0
22/03:00pm 17.8 10.3 4.7 42 6.2 SW 33 46 18 25 1019.8 1019.8 0.0
22/02:30pm 18.2 11.5 5.4 43 6.2 SW 30 41 16 22 1019.8 1019.8 0.0
22/02:00pm 17.8 10.7 5.7 45 5.9 WSW 32 44 17 24 1019.9 1019.9 0.0
22/01:30pm 17.8 10.5 4.4 41 6.4 WSW 32 41 17 22 1020.0 1020.0 0.0
22/01:00pm 17.8 10.8 6.0 46 5.8 WSW 32 46 17 25 1020.2 1020.2 0.0
22/12:30pm 17.4 10.5 6.3 48 5.5 WSW 32 43 17 23 1020.4 1020.4 0.0
22/12:00pm 17.0 12.2 8.9 59 4.2 W 24 35 13 19 1020.5 1020.5 0.0
22/11:30am 14.9 9.1 10.9 77 2.1 SW 32 43 17 23 1020.9 1020.9 0.0
22/11:18am 14.6 9.4 10.2 75 2.3 WSW 28 48 15 26 1020.7 1020.7 0.0
22/11:00am 15.0 8.9 9.8 71 2.7 SW 32 43 17 23 1020.6 1020.6 0.0
22/10:30am 15.4 10.1 8.4 63 3.5 WSW 26 33 14 18 1020.6 1020.6 0.0
22/10:00am 15.6 10.8 8.8 64 3.5 W 24 32 13 17 1020.6 1020.6 0.0
22/09:30am 14.7 10.4 10.7 77 2.1 W 24 35 13 19 1020.4 1020.4 0.0
22/09:00am 13.8 9.5 10.6 81 1.7 W 24 30 13 16 1020.2 1020.2 0.0
22/08:30am 12.0 7.5 10.2 89 0.9 W 24 28 13 15 1019.8 1019.8 0.0
22/08:00am 10.5 6.8 10.3 99 0.1 WNW 20 24 11 13 1019.4 1019.4 0.0
22/07:30am 8.8 4.9 8.8 100 0.0 WNW 19 24 10 13 1019.2 1019.2 0.0
22/07:00am 7.5 4.1 7.5 100 0.0 WNW 15 20 8 11 1018.7 1018.7 0.0
22/06:30am 7.2 3.7 7.2 100 0.0 WNW 15 19 8 10 1018.3 1018.3 0.0
22/06:00am 7.7 3.9 7.7 100 0.0 WNW 17 20 9 11 1017.9 1017.9 0.0
22/05:30am 8.1 4.8 8.1 100 0.0 WNW 15 20 8 11 1017.7 1017.7 0.0
22/05:00am 8.1 4.4 8.1 100 0.0 WNW 17 20 9 11 1017.4 1017.4 0.0
22/04:30am 7.5 3.7 7.5 100 0.0 WNW 17 19 9 10 1017.0 1017.0 0.0
22/04:00am 7.6 4.6 7.6 100 0.0 WNW 13 15 7 8 1016.9 1016.9 0.0
22/03:30am 7.8 4.4 7.8 100 0.0 WNW 15 17 8 9 1017.0 1017.0 0.0
22/03:00am 8.1 4.8 8.0 99 0.0 WNW 15 20 8 11 1017.0 1017.0 0.0
22/02:30am 7.9 5.7 7.8 99 0.0 NW 9 13 5 7 1017.0 1017.0 0.0
22/02:00am 8.1 5.6 8.0 99 0.0 WNW 11 13 6 7 1017.3 1017.3 0.0
22/01:30am 8.6 5.7 8.0 96 0.3 WNW 13 13 7 7 1017.3 1017.3 0.0
22/01:00am 9.6 7.1 8.4 92 0.6 WNW 11 13 6 7 1017.5 1017.5 0.0
22/12:30am 10.6 8.1 8.4 86 1.1 W 11 15 6 8 1017.4 1017.4 0.0
22/12:00am 11.7 8.9 8.7 82 1.5 WSW 13 20 7 11 1017.4 1017.4 0.0
 
Date/Time
CST
Temp
°C
App
Temp
°C
Dew
Point
°C
Rel
Hum
%
Delta-T
°C
Wind Press
QNH
hPa
Press
MSL
hPa
Rain since
9am
mm
Dir  Spd
km/h
Gust
km/h
Spd
kts
Gust
kts
21/11:30pm 12.2 8.4 8.9 80 1.7 WSW 19 24 10 13 1017.5 1017.5 0.0
21/11:00pm 12.3 8.9 9.3 82 1.5 WSW 17 22 9 12 1017.5 1017.5 0.0
21/10:30pm 12.3 8.9 9.0 80 1.7 WSW 17 24 9 13 1017.5 1017.5 0.0
21/10:00pm 12.7 9.1 9.9 83 1.4 WSW 19 28 10 15 1017.4 1017.4 0.0

Other formats

Comma delimited format used in spreadsheet applications
http://www.bom.gov.au/fwo/IDS60801/IDS60801.94651.axf

JavaScript Object Notation format (JSON) in row-major order
http://www.bom.gov.au/fwo/IDS60801/IDS60801.94651.json

Data quality

Most of these data are generated automatically and are frequently updated. Quality checks on data are not normally performed. It is possible for incorrect values to appear. Refer to information at About Latest Weather Observations and please check the disclaimer before using these data.